Terminal Aerodrome Forecast
Issued by NWS

Current Version | Previous Version | Text Only | Print | Product List | Glossary On
Versions: 1 2 3 4 5 6 7 8 9 10 11 12 13 14 15 16 17 18 19 20 21 22 23 24 25 26 27 28 29 30 31 32
000
FTUS41 KRNK 032345
TAFLWB
TAF
KLWB 032345Z 0400/0424 30006KT P6SM VCSH SCT025 BKN050
     FM040700 00000KT 1/4SM FG OVC002
     FM041300 27005KT P6SM OVC015
     FM041700 28009KT P6SM OVC050=

USA.gov is the U.S. government's official web portal to all federal, state and local government web resources and services.